sensor_id;sensor_type;location;lat;lon;timestamp;temperature;humidity
17092;DHT22;8661;45.700;4.880;2022-12-28T00:00:14;4.20;99.90
17092;DHT22;8661;45.700;4.880;2022-12-28T00:02:41;4.20;99.90
17092;DHT22;8661;45.700;4.880;2022-12-28T00:05:08;4.20;99.90
17092;DHT22;8661;45.700;4.880;2022-12-28T00:07:35;4.20;99.90
17092;DHT22;8661;45.700;4.880;2022-12-28T00:10:02;4.20;99.90
17092;DHT22;8661;45.700;4.880;2022-12-28T00:12:29;4.20;99.90
17092;DHT22;8661;45.700;4.880;2022-12-28T00:14:58;4.10;99.90
17092;DHT22;8661;45.700;4.880;2022-12-28T00:17:25;4.10;99.90
17092;DHT22;8661;45.700;4.880;2022-12-28T00:19:52;4.10;99.90
17092;DHT22;8661;45.700;4.880;2022-12-28T00:22:19;4.00;99.90
17092;DHT22;8661;45.700;4.880;2022-12-28T00:24:46;4.00;99.90
17092;DHT22;8661;45.700;4.880;2022-12-28T00:27:12;4.00;99.90
17092;DHT22;8661;45.700;4.880;2022-12-28T00:29:39;4.00;99.90
17092;DHT22;8661;45.700;4.880;2022-12-28T00:32:08;4.00;99.90
17092;DHT22;8661;45.700;4.880;2022-12-28T00:34:34;4.00;99.90
17092;DHT22;8661;45.700;4.880;2022-12-28T00:37:01;4.10;99.90
17092;DHT22;8661;45.700;4.880;2022-12-28T00:39:28;4.10;99.90
17092;DHT22;8661;45.700;4.880;2022-12-28T00:41:55;4.10;99.90
17092;DHT22;8661;45.700;4.880;2022-12-28T00:44:22;4.10;99.90
17092;DHT22;8661;45.700;4.880;2022-12-28T00:46:49;4.10;99.90
17092;DHT22;8661;45.700;4.880;2022-12-28T00:49:17;4.10;99.90
17092;DHT22;8661;45.700;4.880;2022-12-28T00:51:44;4.10;99.90
17092;DHT22;8661;45.700;4.880;2022-12-28T00:54:11;4.10;99.90
17092;DHT22;8661;45.700;4.880;2022-12-28T00:56:39;4.10;99.90
17092;DHT22;8661;45.700;4.880;2022-12-28T00:59:07;4.10;99.90
17092;DHT22;8661;45.700;4.880;2022-12-28T01:01:35;4.10;99.90
17092;DHT22;8661;45.700;4.880;2022-12-28T01:04:02;4.10;99.90
17092;DHT22;8661;45.700;4.880;2022-12-28T01:06:30;4.10;99.90
17092;DHT22;8661;45.700;4.880;2022-12-28T01:08:57;4.10;99.90
17092;DHT22;8661;45.700;4.880;2022-12-28T01:11:25;4.10;99.90
17092;DHT22;8661;45.700;4.880;2022-12-28T01:13:54;4.10;99.90
17092;DHT22;8661;45.700;4.880;2022-12-28T01:16:22;4.00;99.90
17092;DHT22;8661;45.700;4.880;2022-12-28T01:18:51;4.00;99.90
17092;DHT22;8661;45.700;4.880;2022-12-28T01:21:20;4.10;99.90
17092;DHT22;8661;45.700;4.880;2022-12-28T01:23:52;4.10;99.90
17092;DHT22;8661;45.700;4.880;2022-12-28T01:26:19;4.10;99.90
17092;DHT22;8661;45.700;4.880;2022-12-28T01:28:46;4.00;99.90
17092;DHT22;8661;45.700;4.880;2022-12-28T01:31:15;4.00;99.90
17092;DHT22;8661;45.700;4.880;2022-12-28T01:33:42;3.90;99.90
17092;DHT22;8661;45.700;4.880;2022-12-28T01:36:16;3.90;99.90
17092;DHT22;8661;45.700;4.880;2022-12-28T01:38:44;3.90;99.90
17092;DHT22;8661;45.700;4.880;2022-12-28T01:41:15;3.90;99.90
17092;DHT22;8661;45.700;4.880;2022-12-28T01:43:44;3.90;99.90
17092;DHT22;8661;45.700;4.880;2022-12-28T01:46:14;3.80;99.90
17092;DHT22;8661;45.700;4.880;2022-12-28T01:48:46;3.80;99.90
17092;DHT22;8661;45.700;4.880;2022-12-28T01:51:15;3.80;99.90
17092;DHT22;8661;45.700;4.880;2022-12-28T01:53:42;3.80;99.90
17092;DHT22;8661;45.700;4.880;2022-12-28T01:56:09;3.90;99.90
17092;DHT22;8661;45.700;4.880;2022-12-28T01:58:38;3.90;99.90
17092;DHT22;8661;45.700;4.880;2022-12-28T02:01:06;3.90;99.90
17092;DHT22;8661;45.700;4.880;2022-12-28T02:03:33;3.90;99.90
17092;DHT22;8661;45.700;4.880;2022-12-28T02:06:04;3.90;99.90
17092;DHT22;8661;45.700;4.880;2022-12-28T02:08:37;3.90;99.90
17092;DHT22;8661;45.700;4.880;2022-12-28T02:11:06;3.90;99.90
17092;DHT22;8661;45.700;4.880;2022-12-28T02:13:34;3.90;99.90
17092;DHT22;8661;45.700;4.880;2022-12-28T02:16:04;3.90;99.90
17092;DHT22;8661;45.700;4.880;2022-12-28T02:18:31;3.80;99.90
17092;DHT22;8661;45.700;4.880;2022-12-28T02:21:18;3.80;99.90
17092;DHT22;8661;45.700;4.880;2022-12-28T02:27:00;3.70;99.90
17092;DHT22;8661;45.700;4.880;2022-12-28T02:32:44;3.70;99.90
17092;DHT22;8661;45.700;4.880;2022-12-28T02:35:18;3.70;99.90
17092;DHT22;8661;45.700;4.880;2022-12-28T02:37:49;3.60;99.90
17092;DHT22;8661;45.700;4.880;2022-12-28T02:40:21;3.60;99.90
17092;DHT22;8661;45.700;4.880;2022-12-28T02:42:50;3.60;99.90
17092;DHT22;8661;45.700;4.880;2022-12-28T02:45:40;3.60;99.90
17092;DHT22;8661;45.700;4.880;2022-12-28T02:48:25;3.50;99.90
17092;DHT22;8661;45.700;4.880;2022-12-28T02:51:46;3.60;99.90
17092;DHT22;8661;45.700;4.880;2022-12-28T02:54:28;3.50;99.90
17092;DHT22;8661;45.700;4.880;2022-12-28T02:57:28;3.50;99.90
17092;DHT22;8661;45.700;4.880;2022-12-28T03:00:05;3.40;99.90
17092;DHT22;8661;45.700;4.880;2022-12-28T03:02:48;3.40;99.90
17092;DHT22;8661;45.700;4.880;2022-12-28T03:05:23;3.40;99.90
17092;DHT22;8661;45.700;4.880;2022-12-28T03:08:13;3.40;99.90
17092;DHT22;8661;45.700;4.880;2022-12-28T03:10:50;3.40;99.90
17092;DHT22;8661;45.700;4.880;2022-12-28T03:13:21;3.30;99.90
17092;DHT22;8661;45.700;4.880;2022-12-28T03:16:09;3.40;99.90
17092;DHT22;8661;45.700;4.880;2022-12-28T03:18:39;3.40;99.90
17092;DHT22;8661;45.700;4.880;2022-12-28T03:21:28;3.40;99.90
17092;DHT22;8661;45.700;4.880;2022-12-28T03:24:14;3.30;99.90
17092;DHT22;8661;45.700;4.880;2022-12-28T03:27:01;3.20;99.90
17092;DHT22;8661;45.700;4.880;2022-12-28T03:29:54;3.20;99.90
17092;DHT22;8661;45.700;4.880;2022-12-28T03:32:39;3.20;99.90
17092;DHT22;8661;45.700;4.880;2022-12-28T03:35:08;3.20;99.90
17092;DHT22;8661;45.700;4.880;2022-12-28T03:37:39;3.20;99.90
17092;DHT22;8661;45.700;4.880;2022-12-28T03:40:14;3.20;99.90
17092;DHT22;8661;45.700;4.880;2022-12-28T03:42:44;3.20;99.90
17092;DHT22;8661;45.700;4.880;2022-12-28T03:45:34;3.20;99.90
17092;DHT22;8661;45.700;4.880;2022-12-28T03:48:02;3.10;99.90
17092;DHT22;8661;45.700;4.880;2022-12-28T03:50:35;3.00;99.90
17092;DHT22;8661;45.700;4.880;2022-12-28T03:53:03;3.00;99.90
17092;DHT22;8661;45.700;4.880;2022-12-28T03:55:30;3.00;99.90
17092;DHT22;8661;45.700;4.880;2022-12-28T03:57:57;3.00;99.90
17092;DHT22;8661;45.700;4.880;2022-12-28T04:00:24;3.00;99.90
17092;DHT22;8661;45.700;4.880;2022-12-28T04:02:50;2.90;99.90
17092;DHT22;8661;45.700;4.880;2022-12-28T04:05:17;3.00;99.90
17092;DHT22;8661;45.700;4.880;2022-12-28T04:07:47;3.00;99.90
17092;DHT22;8661;45.700;4.880;2022-12-28T04:10:14;3.00;99.90
17092;DHT22;8661;45.700;4.880;2022-12-28T04:12:41;2.90;99.90
17092;DHT22;8661;45.700;4.880;2022-12-28T04:15:08;2.90;99.90
17092;DHT22;8661;45.700;4.880;2022-12-28T04:17:35;2.80;99.90
17092;DHT22;8661;45.700;4.880;2022-12-28T04:20:02;2.80;99.90
17092;DHT22;8661;45.700;4.880;2022-12-28T04:22:29;2.80;99.90
17092;DHT22;8661;45.700;4.880;2022-12-28T04:24:57;2.80;99.90
17092;DHT22;8661;45.700;4.880;2022-12-28T04:27:24;2.80;99.90
17092;DHT22;8661;45.700;4.880;2022-12-28T04:29:51;2.80;99.90
17092;DHT22;8661;45.700;4.880;2022-12-28T04:32:18;2.70;99.90
17092;DHT22;8661;45.700;4.880;2022-12-28T04:34:45;2.70;99.90
17092;DHT22;8661;45.700;4.880;2022-12-28T04:37:12;2.60;99.90
17092;DHT22;8661;45.700;4.880;2022-12-28T04:39:38;2.70;99.90
17092;DHT22;8661;45.700;4.880;2022-12-28T04:42:07;2.70;99.90
17092;DHT22;8661;45.700;4.880;2022-12-28T04:44:33;2.70;99.90
17092;DHT22;8661;45.700;4.880;2022-12-28T04:47:00;2.70;99.90
17092;DHT22;8661;45.700;4.880;2022-12-28T04:49:27;2.60;99.90
17092;DHT22;8661;45.700;4.880;2022-12-28T04:51:54;2.60;99.90
17092;DHT22;8661;45.700;4.880;2022-12-28T04:54:21;2.60;99.90
17092;DHT22;8661;45.700;4.880;2022-12-28T04:56:48;2.50;99.90
17092;DHT22;8661;45.700;4.880;2022-12-28T04:59:16;2.50;99.90
17092;DHT22;8661;45.700;4.880;2022-12-28T05:01:43;2.50;99.90
17092;DHT22;8661;45.700;4.880;2022-12-28T05:04:10;2.60;99.90
17092;DHT22;8661;45.700;4.880;2022-12-28T05:06:37;2.50;99.90
17092;DHT22;8661;45.700;4.880;2022-12-28T05:09:03;2.60;99.90
17092;DHT22;8661;45.700;4.880;2022-12-28T05:11:30;2.50;99.90
17092;DHT22;8661;45.700;4.880;2022-12-28T05:13:57;2.50;99.90
17092;DHT22;8661;45.700;4.880;2022-12-28T05:16:26;2.50;99.90
17092;DHT22;8661;45.700;4.880;2022-12-28T05:18:54;2.50;99.90
17092;DHT22;8661;45.700;4.880;2022-12-28T05:21:22;2.60;99.90
17092;DHT22;8661;45.700;4.880;2022-12-28T05:23:50;2.60;99.90
17092;DHT22;8661;45.700;4.880;2022-12-28T05:26:19;2.60;99.90
17092;DHT22;8661;45.700;4.880;2022-12-28T05:28:49;2.60;99.90
17092;DHT22;8661;45.700;4.880;2022-12-28T05:31:18;2.60;99.90
17092;DHT22;8661;45.700;4.880;2022-12-28T05:33:47;2.60;99.90
17092;DHT22;8661;45.700;4.880;2022-12-28T05:36:16;2.70;99.90
17092;DHT22;8661;45.700;4.880;2022-12-28T05:38:43;2.70;99.90
17092;DHT22;8661;45.700;4.880;2022-12-28T05:41:12;2.70;99.90
17092;DHT22;8661;45.700;4.880;2022-12-28T05:43:39;2.70;99.90
17092;DHT22;8661;45.700;4.880;2022-12-28T05:46:08;2.70;99.90
17092;DHT22;8661;45.700;4.880;2022-12-28T05:48:39;2.60;99.90
17092;DHT22;8661;45.700;4.880;2022-12-28T05:51:08;2.60;99.90
17092;DHT22;8661;45.700;4.880;2022-12-28T05:53:37;2.50;99.90
17092;DHT22;8661;45.700;4.880;2022-12-28T05:56:06;2.50;99.90
17092;DHT22;8661;45.700;4.880;2022-12-28T05:58:34;2.40;99.90
17092;DHT22;8661;45.700;4.880;2022-12-28T06:01:05;2.50;99.90
17092;DHT22;8661;45.700;4.880;2022-12-28T06:03:33;2.50;99.90
17092;DHT22;8661;45.700;4.880;2022-12-28T06:06:05;2.50;99.90
17092;DHT22;8661;45.700;4.880;2022-12-28T06:08:33;2.40;99.90
17092;DHT22;8661;45.700;4.880;2022-12-28T06:11:01;2.50;99.90
17092;DHT22;8661;45.700;4.880;2022-12-28T06:13:29;2.40;99.90
17092;DHT22;8661;45.700;4.880;2022-12-28T06:15:56;2.40;99.90
17092;DHT22;8661;45.700;4.880;2022-12-28T06:18:23;2.40;99.90
17092;DHT22;8661;45.700;4.880;2022-12-28T06:20:53;2.40;99.90
17092;DHT22;8661;45.700;4.880;2022-12-28T06:23:20;2.40;99.90
17092;DHT22;8661;45.700;4.880;2022-12-28T06:25:49;2.30;99.90
17092;DHT22;8661;45.700;4.880;2022-12-28T06:28:16;2.30;99.90
17092;DHT22;8661;45.700;4.880;2022-12-28T06:30:43;2.30;99.90
17092;DHT22;8661;45.700;4.880;2022-12-28T06:33:10;2.30;99.90
17092;DHT22;8661;45.700;4.880;2022-12-28T06:35:39;2.30;99.90
17092;DHT22;8661;45.700;4.880;2022-12-28T06:38:06;2.30;99.90
17092;DHT22;8661;45.700;4.880;2022-12-28T06:40:33;2.20;99.90
17092;DHT22;8661;45.700;4.880;2022-12-28T06:43:01;2.20;99.90
17092;DHT22;8661;45.700;4.880;2022-12-28T06:45:28;2.20;99.90
17092;DHT22;8661;45.700;4.880;2022-12-28T06:47:55;2.20;99.90
17092;DHT22;8661;45.700;4.880;2022-12-28T06:50:22;2.20;99.90
17092;DHT22;8661;45.700;4.880;2022-12-28T06:52:49;2.20;99.90
17092;DHT22;8661;45.700;4.880;2022-12-28T06:55:15;2.20;99.90
17092;DHT22;8661;45.700;4.880;2022-12-28T06:57:42;2.10;99.90
17092;DHT22;8661;45.700;4.880;2022-12-28T07:00:12;2.10;99.90
17092;DHT22;8661;45.700;4.880;2022-12-28T07:02:42;2.20;99.90
17092;DHT22;8661;45.700;4.880;2022-12-28T07:05:09;2.10;99.90
17092;DHT22;8661;45.700;4.880;2022-12-28T07:07:35;2.10;99.90
17092;DHT22;8661;45.700;4.880;2022-12-28T07:10:03;2.10;99.90
17092;DHT22;8661;45.700;4.880;2022-12-28T07:12:30;2.20;99.90
17092;DHT22;8661;45.700;4.880;2022-12-28T07:14:56;2.20;99.90
17092;DHT22;8661;45.700;4.880;2022-12-28T07:17:25;2.20;99.90
17092;DHT22;8661;45.700;4.880;2022-12-28T07:19:51;2.20;99.90
17092;DHT22;8661;45.700;4.880;2022-12-28T07:22:18;2.30;99.90
17092;DHT22;8661;45.700;4.880;2022-12-28T07:24:45;2.40;99.90
17092;DHT22;8661;45.700;4.880;2022-12-28T07:27:12;2.40;99.90
17092;DHT22;8661;45.700;4.880;2022-12-28T07:29:39;2.50;99.90
17092;DHT22;8661;45.700;4.880;2022-12-28T07:32:06;2.50;99.90
17092;DHT22;8661;45.700;4.880;2022-12-28T07:34:34;2.60;99.90
17092;DHT22;8661;45.700;4.880;2022-12-28T07:37:01;2.60;99.90
17092;DHT22;8661;45.700;4.880;2022-12-28T07:39:28;2.70;99.90
17092;DHT22;8661;45.700;4.880;2022-12-28T07:41:55;2.70;99.90
17092;DHT22;8661;45.700;4.880;2022-12-28T07:44:22;2.70;99.90
17092;DHT22;8661;45.700;4.880;2022-12-28T07:46:49;2.80;99.90
17092;DHT22;8661;45.700;4.880;2022-12-28T07:49:15;2.80;99.90
17092;DHT22;8661;45.700;4.880;2022-12-28T07:51:44;2.90;99.90
17092;DHT22;8661;45.700;4.880;2022-12-28T07:54:11;2.90;99.90
17092;DHT22;8661;45.700;4.880;2022-12-28T07:56:37;3.10;99.90
17092;DHT22;8661;45.700;4.880;2022-12-28T07:59:05;3.10;99.90
17092;DHT22;8661;45.700;4.880;2022-12-28T08:01:33;3.10;99.90
17092;DHT22;8661;45.700;4.880;2022-12-28T08:04:02;3.20;99.90
17092;DHT22;8661;45.700;4.880;2022-12-28T08:06:33;3.30;99.90
17092;DHT22;8661;45.700;4.880;2022-12-28T08:09:03;3.30;99.90
17092;DHT22;8661;45.700;4.880;2022-12-28T08:11:32;3.30;99.90
17092;DHT22;8661;45.700;4.880;2022-12-28T08:14:00;3.40;99.90
17092;DHT22;8661;45.700;4.880;2022-12-28T08:16:29;3.40;99.90
17092;DHT22;8661;45.700;4.880;2022-12-28T08:18:56;3.50;99.90
17092;DHT22;8661;45.700;4.880;2022-12-28T08:21:27;3.60;99.90
17092;DHT22;8661;45.700;4.880;2022-12-28T08:23:54;3.60;99.90
17092;DHT22;8661;45.700;4.880;2022-12-28T08:26:24;3.70;99.90
17092;DHT22;8661;45.700;4.880;2022-12-28T08:28:54;3.80;99.90
17092;DHT22;8661;45.700;4.880;2022-12-28T08:31:23;3.90;99.90
17092;DHT22;8661;45.700;4.880;2022-12-28T08:33:51;4.00;99.90
17092;DHT22;8661;45.700;4.880;2022-12-28T08:36:18;4.20;99.90
17092;DHT22;8661;45.700;4.880;2022-12-28T08:38:45;4.50;99.90
17092;DHT22;8661;45.700;4.880;2022-12-28T08:41:14;4.80;99.90
17092;DHT22;8661;45.700;4.880;2022-12-28T08:43:42;5.00;99.90
17092;DHT22;8661;45.700;4.880;2022-12-28T08:46:11;5.30;99.90
17092;DHT22;8661;45.700;4.880;2022-12-28T08:48:38;5.50;99.90
17092;DHT22;8661;45.700;4.880;2022-12-28T08:51:07;5.60;99.90
17092;DHT22;8661;45.700;4.880;2022-12-28T08:53:35;6.20;99.90
17092;DHT22;8661;45.700;4.880;2022-12-28T08:56:03;7.10;99.90
17092;DHT22;8661;45.700;4.880;2022-12-28T08:58:31;7.80;99.90
17092;DHT22;8661;45.700;4.880;2022-12-28T09:01:06;9.20;99.90
17092;DHT22;8661;45.700;4.880;2022-12-28T09:03:34;11.60;99.90
17092;DHT22;8661;45.700;4.880;2022-12-28T09:06:02;12.90;99.90
17092;DHT22;8661;45.700;4.880;2022-12-28T09:08:29;13.60;99.90
17092;DHT22;8661;45.700;4.880;2022-12-28T09:10:58;14.50;99.90
17092;DHT22;8661;45.700;4.880;2022-12-28T09:13:26;15.70;99.90
17092;DHT22;8661;45.700;4.880;2022-12-28T09:15:57;16.70;99.90
17092;DHT22;8661;45.700;4.880;2022-12-28T09:18:25;17.80;97.00
17092;DHT22;8661;45.700;4.880;2022-12-28T09:20:52;19.10;92.10
17092;DHT22;8661;45.700;4.880;2022-12-28T09:23:19;20.20;88.00
17092;DHT22;8661;45.700;4.880;2022-12-28T09:25:46;21.10;84.90
17092;DHT22;8661;45.700;4.880;2022-12-28T09:28:13;22.10;78.20
17092;DHT22;8661;45.700;4.880;2022-12-28T09:30:40;22.80;75.70
17092;DHT22;8661;45.700;4.880;2022-12-28T09:33:07;23.40;73.90
17092;DHT22;8661;45.700;4.880;2022-12-28T09:35:56;23.60;70.70
17092;DHT22;8661;45.700;4.880;2022-12-28T09:38:23;23.90;68.00
17092;DHT22;8661;45.700;4.880;2022-12-28T09:40:50;24.60;67.60
17092;DHT22;8661;45.700;4.880;2022-12-28T09:43:17;25.00;64.70
17092;DHT22;8661;45.700;4.880;2022-12-28T09:45:45;25.30;61.50
17092;DHT22;8661;45.700;4.880;2022-12-28T09:48:15;24.70;62.90
17092;DHT22;8661;45.700;4.880;2022-12-28T09:50:43;25.00;63.30
17092;DHT22;8661;45.700;4.880;2022-12-28T09:53:21;24.90;61.50
17092;DHT22;8661;45.700;4.880;2022-12-28T09:56:05;24.70;61.00
17092;DHT22;8661;45.700;4.880;2022-12-28T09:58:41;24.40;65.90
17092;DHT22;8661;45.700;4.880;2022-12-28T10:01:11;24.60;72.60
17092;DHT22;8661;45.700;4.880;2022-12-28T10:03:41;25.00;69.90
17092;DHT22;8661;45.700;4.880;2022-12-28T10:06:10;26.30;67.60
17092;DHT22;8661;45.700;4.880;2022-12-28T10:08:41;26.70;66.10
17092;DHT22;8661;45.700;4.880;2022-12-28T10:11:14;26.70;63.00
17092;DHT22;8661;45.700;4.880;2022-12-28T10:13:42;26.30;63.20
17092;DHT22;8661;45.700;4.880;2022-12-28T10:16:15;26.50;63.50
17092;DHT22;8661;45.700;4.880;2022-12-28T10:18:42;26.40;60.30
17092;DHT22;8661;45.700;4.880;2022-12-28T10:21:09;26.70;63.20
17092;DHT22;8661;45.700;4.880;2022-12-28T10:23:39;26.40;62.60
17092;DHT22;8661;45.700;4.880;2022-12-28T10:26:11;25.90;62.60
17092;DHT22;8661;45.700;4.880;2022-12-28T10:28:43;23.00;65.10
17092;DHT22;8661;45.700;4.880;2022-12-28T10:31:11;22.10;69.20
17092;DHT22;8661;45.700;4.880;2022-12-28T10:33:40;21.60;70.00
17092;DHT22;8661;45.700;4.880;2022-12-28T10:36:11;22.20;70.20
17092;DHT22;8661;45.700;4.880;2022-12-28T10:38:41;23.80;67.00
17092;DHT22;8661;45.700;4.880;2022-12-28T10:41:13;24.80;62.40
17092;DHT22;8661;45.700;4.880;2022-12-28T10:43:43;24.90;61.10
17092;DHT22;8661;45.700;4.880;2022-12-28T10:46:15;24.60;62.30
17092;DHT22;8661;45.700;4.880;2022-12-28T10:48:46;24.70;62.40
17092;DHT22;8661;45.700;4.880;2022-12-28T10:51:16;24.70;61.90
17092;DHT22;8661;45.700;4.880;2022-12-28T10:53:45;24.30;62.80
17092;DHT22;8661;45.700;4.880;2022-12-28T10:56:22;24.30;63.10
17092;DHT22;8661;45.700;4.880;2022-12-28T10:58:53;24.70;61.90
17092;DHT22;8661;45.700;4.880;2022-12-28T11:01:24;24.50;61.30
17092;DHT22;8661;45.700;4.880;2022-12-28T11:04:01;23.30;62.90
17092;DHT22;8661;45.700;4.880;2022-12-28T11:06:29;23.30;63.80
17092;DHT22;8661;45.700;4.880;2022-12-28T11:09:13;23.90;64.00
17092;DHT22;8661;45.700;4.880;2022-12-28T11:11:41;23.60;63.30
17092;DHT22;8661;45.700;4.880;2022-12-28T11:14:14;22.30;66.40
17092;DHT22;8661;45.700;4.880;2022-12-28T11:16:42;22.60;67.10
17092;DHT22;8661;45.700;4.880;2022-12-28T11:19:09;23.60;64.70
17092;DHT22;8661;45.700;4.880;2022-12-28T11:21:37;24.00;63.40
17092;DHT22;8661;45.700;4.880;2022-12-28T11:24:09;24.20;63.10
17092;DHT22;8661;45.700;4.880;2022-12-28T11:26:39;24.50;62.40
17092;DHT22;8661;45.700;4.880;2022-12-28T11:29:09;23.90;63.70
17092;DHT22;8661;45.700;4.880;2022-12-28T11:31:40;23.80;64.50
17092;DHT22;8661;45.700;4.880;2022-12-28T11:34:15;23.50;63.80
17092;DHT22;8661;45.700;4.880;2022-12-28T11:36:43;23.50;63.50
17092;DHT22;8661;45.700;4.880;2022-12-28T11:39:31;23.80;65.40
17092;DHT22;8661;45.700;4.880;2022-12-28T11:41:59;23.80;63.70
17092;DHT22;8661;45.700;4.880;2022-12-28T11:44:48;23.60;63.70
17092;DHT22;8661;45.700;4.880;2022-12-28T11:47:27;23.00;64.20
17092;DHT22;8661;45.700;4.880;2022-12-28T11:53:19;23.40;65.20
17092;DHT22;8661;45.700;4.880;2022-12-28T11:55:56;24.20;63.20
17092;DHT22;8661;45.700;4.880;2022-12-28T11:58:46;23.70;63.90
17092;DHT22;8661;45.700;4.880;2022-12-28T12:04:25;20.80;67.00
17092;DHT22;8661;45.700;4.880;2022-12-28T12:07:13;19.50;72.60
17092;DHT22;8661;45.700;4.880;2022-12-28T12:09:42;18.10;75.90
17092;DHT22;8661;45.700;4.880;2022-12-28T12:12:34;17.10;79.60
17092;DHT22;8661;45.700;4.880;2022-12-28T12:15:08;16.30;80.40
17092;DHT22;8661;45.700;4.880;2022-12-28T12:17:40;15.40;84.50
17092;DHT22;8661;45.700;4.880;2022-12-28T12:20:19;14.70;86.80
17092;DHT22;8661;45.700;4.880;2022-12-28T12:22:48;14.30;88.80
17092;DHT22;8661;45.700;4.880;2022-12-28T12:25:20;14.00;90.10
17092;DHT22;8661;45.700;4.880;2022-12-28T12:27:54;13.60;90.90
17092;DHT22;8661;45.700;4.880;2022-12-28T12:30:23;13.40;91.50
17092;DHT22;8661;45.700;4.880;2022-12-28T12:32:53;13.20;92.00
17092;DHT22;8661;45.700;4.880;2022-12-28T12:35:23;13.00;92.60
17092;DHT22;8661;45.700;4.880;2022-12-28T12:37:54;12.70;93.20
17092;DHT22;8661;45.700;4.880;2022-12-28T12:40:46;12.50;93.90
17092;DHT22;8661;45.700;4.880;2022-12-28T12:43:35;12.20;94.50
17092;DHT22;8661;45.700;4.880;2022-12-28T12:46:18;11.90;95.50
17092;DHT22;8661;45.700;4.880;2022-12-28T12:49:11;11.80;95.90
17092;DHT22;8661;45.700;4.880;2022-12-28T12:51:46;11.70;96.60
17092;DHT22;8661;45.700;4.880;2022-12-28T12:54:23;11.70;96.70
17092;DHT22;8661;45.700;4.880;2022-12-28T12:56:57;11.70;96.90
17092;DHT22;8661;45.700;4.880;2022-12-28T12:59:51;11.70;97.20
17092;DHT22;8661;45.700;4.880;2022-12-28T13:02:38;11.70;97.70
17092;DHT22;8661;45.700;4.880;2022-12-28T13:05:14;11.80;97.90
17092;DHT22;8661;45.700;4.880;2022-12-28T13:07:42;12.00;98.00
17092;DHT22;8661;45.700;4.880;2022-12-28T13:10:14;12.60;97.70
17092;DHT22;8661;45.700;4.880;2022-12-28T13:12:42;13.20;96.70
17092;DHT22;8661;45.700;4.880;2022-12-28T13:15:16;13.60;95.80
17092;DHT22;8661;45.700;4.880;2022-12-28T13:18:00;13.70;95.60
17092;DHT22;8661;45.700;4.880;2022-12-28T13:20:28;14.00;95.30
17092;DHT22;8661;45.700;4.880;2022-12-28T13:22:55;14.00;95.10
17092;DHT22;8661;45.700;4.880;2022-12-28T13:25:23;14.30;95.00
17092;DHT22;8661;45.700;4.880;2022-12-28T13:27:50;14.40;94.60
17092;DHT22;8661;45.700;4.880;2022-12-28T13:30:20;14.50;94.60
17092;DHT22;8661;45.700;4.880;2022-12-28T13:32:52;14.80;94.10
17092;DHT22;8661;45.700;4.880;2022-12-28T13:35:22;15.10;93.80
17092;DHT22;8661;45.700;4.880;2022-12-28T13:38:03;15.10;93.70
17092;DHT22;8661;45.700;4.880;2022-12-28T13:40:31;15.20;93.80
17092;DHT22;8661;45.700;4.880;2022-12-28T13:43:16;15.40;93.20
17092;DHT22;8661;45.700;4.880;2022-12-28T13:45:50;14.90;93.50
17092;DHT22;8661;45.700;4.880;2022-12-28T13:48:18;14.20;94.50
17092;DHT22;8661;45.700;4.880;2022-12-28T13:50:45;13.70;95.60
17092;DHT22;8661;45.700;4.880;2022-12-28T13:53:16;13.60;96.10
17092;DHT22;8661;45.700;4.880;2022-12-28T13:55:47;13.30;96.60
17092;DHT22;8661;45.700;4.880;2022-12-28T13:58:17;13.00;97.30
17092;DHT22;8661;45.700;4.880;2022-12-28T14:00:48;12.80;97.80
17092;DHT22;8661;45.700;4.880;2022-12-28T14:03:16;12.70;98.40
17092;DHT22;8661;45.700;4.880;2022-12-28T14:05:46;12.50;98.90
17092;DHT22;8661;45.700;4.880;2022-12-28T14:08:13;12.40;99.40
17092;DHT22;8661;45.700;4.880;2022-12-28T14:10:41;12.30;99.80
17092;DHT22;8661;45.700;4.880;2022-12-28T14:13:09;12.10;99.90
17092;DHT22;8661;45.700;4.880;2022-12-28T14:15:36;12.00;99.90
17092;DHT22;8661;45.700;4.880;2022-12-28T14:18:05;11.90;99.90
17092;DHT22;8661;45.700;4.880;2022-12-28T14:20:45;11.90;99.90
17092;DHT22;8661;45.700;4.880;2022-12-28T14:23:20;11.90;99.90
17092;DHT22;8661;45.700;4.880;2022-12-28T14:25:47;11.70;99.90
17092;DHT22;8661;45.700;4.880;2022-12-28T14:28:18;11.70;99.90
17092;DHT22;8661;45.700;4.880;2022-12-28T14:30:50;11.70;99.90
17092;DHT22;8661;45.700;4.880;2022-12-28T14:33:21;11.60;99.90
17092;DHT22;8661;45.700;4.880;2022-12-28T14:35:50;11.60;99.90
17092;DHT22;8661;45.700;4.880;2022-12-28T14:38:19;11.50;99.90
17092;DHT22;8661;45.700;4.880;2022-12-28T14:40:52;11.50;99.90
17092;DHT22;8661;45.700;4.880;2022-12-28T14:43:24;11.40;99.90
17092;DHT22;8661;45.700;4.880;2022-12-28T14:45:52;11.40;99.90
17092;DHT22;8661;45.700;4.880;2022-12-28T14:48:23;11.30;99.90
17092;DHT22;8661;45.700;4.880;2022-12-28T14:50:55;11.30;99.90
17092;DHT22;8661;45.700;4.880;2022-12-28T14:53:23;11.30;99.90
17092;DHT22;8661;45.700;4.880;2022-12-28T14:56:01;11.30;99.90
17092;DHT22;8661;45.700;4.880;2022-12-28T14:58:32;11.20;99.90
17092;DHT22;8661;45.700;4.880;2022-12-28T15:01:05;11.30;99.90
17092;DHT22;8661;45.700;4.880;2022-12-28T15:03:49;11.20;99.90
17092;DHT22;8661;45.700;4.880;2022-12-28T15:06:17;11.20;99.90
17092;DHT22;8661;45.700;4.880;2022-12-28T15:08:46;11.10;99.90
17092;DHT22;8661;45.700;4.880;2022-12-28T15:11:13;11.10;99.90
17092;DHT22;8661;45.700;4.880;2022-12-28T15:13:40;11.10;99.90
17092;DHT22;8661;45.700;4.880;2022-12-28T15:16:10;11.10;99.90
17092;DHT22;8661;45.700;4.880;2022-12-28T15:18:39;11.10;99.90
17092;DHT22;8661;45.700;4.880;2022-12-28T15:21:11;11.10;99.90
17092;DHT22;8661;45.700;4.880;2022-12-28T15:23:38;11.10;99.90
17092;DHT22;8661;45.700;4.880;2022-12-28T15:26:06;11.10;99.90
17092;DHT22;8661;45.700;4.880;2022-12-28T15:28:33;11.10;99.90
17092;DHT22;8661;45.700;4.880;2022-12-28T15:31:03;11.10;99.90
17092;DHT22;8661;45.700;4.880;2022-12-28T15:33:30;11.10;99.90
17092;DHT22;8661;45.700;4.880;2022-12-28T15:36:01;11.10;99.90
17092;DHT22;8661;45.700;4.880;2022-12-28T15:38:29;11.10;99.90
17092;DHT22;8661;45.700;4.880;2022-12-28T15:40:56;11.10;99.90
17092;DHT22;8661;45.700;4.880;2022-12-28T15:43:23;11.10;99.90
17092;DHT22;8661;45.700;4.880;2022-12-28T15:45:52;11.00;99.90
17092;DHT22;8661;45.700;4.880;2022-12-28T15:48:19;11.00;99.90
17092;DHT22;8661;45.700;4.880;2022-12-28T15:50:46;11.00;99.90
17092;DHT22;8661;45.700;4.880;2022-12-28T15:53:13;10.90;99.90
17092;DHT22;8661;45.700;4.880;2022-12-28T15:55:44;10.90;99.90
17092;DHT22;8661;45.700;4.880;2022-12-28T15:58:11;10.80;99.90
17092;DHT22;8661;45.700;4.880;2022-12-28T16:00:37;10.80;99.90
17092;DHT22;8661;45.700;4.880;2022-12-28T16:03:04;10.80;99.90
17092;DHT22;8661;45.700;4.880;2022-12-28T16:05:32;10.80;99.90
17092;DHT22;8661;45.700;4.880;2022-12-28T16:07:59;10.70;99.90
17092;DHT22;8661;45.700;4.880;2022-12-28T16:10:26;10.70;99.90
17092;DHT22;8661;45.700;4.880;2022-12-28T16:12:54;10.70;99.90
17092;DHT22;8661;45.700;4.880;2022-12-28T16:15:21;10.70;99.90
17092;DHT22;8661;45.700;4.880;2022-12-28T16:17:48;10.70;99.90
17092;DHT22;8661;45.700;4.880;2022-12-28T16:20:15;10.70;99.90
17092;DHT22;8661;45.700;4.880;2022-12-28T16:22:41;10.70;99.90
17092;DHT22;8661;45.700;4.880;2022-12-28T16:25:09;10.70;99.90
17092;DHT22;8661;45.700;4.880;2022-12-28T16:27:36;10.80;99.90